Crossville, Tennessee
Current Conditions -  °F | °C
As of 1:53 AM on Thursday 27 Nov 2014 (Local Time) from KCSV Reporting Station
Overcast Overcast  
Wind Chill: -2°   Ceiling: 1500
Heat Index:   Visibility: 10mi
Dew Point: -1°   Wind: 14mph
Humidity: 79%   Direction: 270°W
Pressure: 30.03"   Gusts: NA
Location:  35.95°N, 85.03°W
Report Text: KCSV 270753Z AUTO 27012KT 10SM BKN015 OVC022 03/M01 A3003 RMK AO2 SLP171 T00281006
Loading
Personal Weather Stations






























Interactive Weather Map New forecast layout! Learn more

10-Day Weather Forecast

Advertisements
Track Severe Weather on mobile